Time;durP1;ratioP1;P1;durP2;ratioP2;P2;SDS_P1;SDS_P2;PMS_P1;PMS_P2;Temp;Humidity;BMP_temperature;BMP_pressure;BME280_temperature;BME280_humidity;BME280_pressure;Samples;Min_cycle;Max_cycle;Signal;HPM_P1;HPM_P2
2021/08/08 05:00:40;;;;;;;3.85;1.40;;;;;;;31.72;33.74;94855.28;6143629;23;20138;31
2021/08/08 05:03:05;;;;;;;2.13;1.75;;;;;;;32.96;31.96;94857.91;4951221;28;20125;-80
2021/08/08 05:05:31;;;;;;;2.53;1.50;;;;;;;33.71;31.60;94855.63;4974105;28;20038;-79
2021/08/08 05:07:56;;;;;;;3.60;1.45;;;;;;;33.86;31.43;94868.56;4969516;28;20031;-80
2021/08/08 05:10:24;;;;;;;9.88;1.40;;;;;;;34.73;30.64;94856.41;4991140;28;20037;-81
2021/08/08 05:12:53;;;;;;;2.33;1.40;;;;;;;34.68;30.30;94861.22;4975523;28;20121;-78
2021/08/08 05:15:19;;;;;;;4.05;1.70;;;;;;;34.49;31.01;94858.88;4958767;28;20066;-81
2021/08/08 05:17:44;;;;;;;3.33;1.45;;;;;;;32.77;33.34;94868.91;4953321;28;20114;-80
2021/08/08 05:20:10;;;;;;;1.23;1.13;;;;;;;31.67;35.02;94868.81;4991100;28;20022;-79
2021/08/08 05:22:36;;;;;;;2.30;1.38;;;;;;;33.02;33.32;94867.38;4992730;28;20105;-80
2021/08/08 05:25:02;;;;;;;1.33;1.23;;;;;;;35.24;30.49;94857.22;4977731;28;20474;-80
2021/08/08 05:27:27;;;;;;;1.60;1.33;;;;;;;34.60;31.01;94876.28;4977711;28;20450;-80
2021/08/08 05:29:52;;;;;;;2.00;1.00;;;;;;;36.39;29.35;94853.63;4988469;28;20627;-81
2021/08/08 05:32:18;;;;;;;3.15;1.38;;;;;;;35.89;29.72;94878.91;4942829;28;20039;-80
2021/08/08 05:34:44;;;;;;;1.17;1.17;;;;;;;36.92;29.18;94875.06;4972479;28;20086;-80
2021/08/08 05:37:09;;;;;;;1.73;1.27;;;;;;;36.23;29.18;94882.38;4958417;28;20385;-81
2021/08/08 05:39:35;;;;;;;1.50;1.38;;;;;;;36.39;29.07;94869.81;4974345;28;20492;-80
2021/08/08 05:42:00;;;;;;;1.48;1.15;;;;;;;35.66;28.78;94877.69;4958451;28;20027;-79
2021/08/08 05:44:25;;;;;;;1.10;1.00;;;;;;;34.13;30.88;94870.06;4973284;28;20412;-80
2021/08/08 05:46:51;;;;;;;1.13;1.02;;;;;;;36.59;27.74;94855.47;4958079;28;20018;-80
2021/08/08 05:49:16;;;;;;;2.22;1.02;;;;;;;37.54;26.53;94857.59;4959153;28;20030;-80
2021/08/08 05:51:42;;;;;;;1.35;1.25;;;;;;;34.36;28.89;94843.72;4956583;28;20498;-80
2021/08/08 05:54:08;;;;;;;2.38;1.20;;;;;;;35.96;28.19;94857.56;4958209;28;20022;-79
2021/08/08 05:56:33;;;;;;;1.13;1.10;;;;;;;35.64;28.19;94866.44;4974225;28;20046;-79
2021/08/08 05:58:59;;;;;;;2.00;1.10;;;;;;;36.12;27.83;94859.66;4972246;28;20042;-79
2021/08/08 06:01:24;;;;;;;1.30;1.20;;;;;;;37.16;27.02;94855.31;4975435;28;20042;-80
2021/08/08 06:03:50;;;;;;;1.63;1.50;;;;;;;35.96;28.03;94857.56;4975785;28;20030;-79
2021/08/08 06:06:15;;;;;;;1.67;1.00;;;;;;;33.46;30.94;94866.34;4973458;28;20035;-80
2021/08/08 06:08:41;;;;;;;1.20;1.05;;;;;;;28.97;37.92;94867.09;4977627;28;20033;-81
2021/08/08 06:11:07;;;;;;;3.13;1.13;;;;;;;29.26;37.73;94864.31;4953592;28;20030;-82
2021/08/08 06:13:33;;;;;;;3.05;1.23;;;;;;;30.63;36.31;94863.56;4952455;28;20049;-80
2021/08/08 06:15:59;;;;;;;1.40;1.08;;;;;;;31.82;35.21;94865.00;4972938;28;20026;-81
2021/08/08 06:18:25;;;;;;;1.67;1.10;;;;;;;30.09;36.55;94858.16;4972681;28;20101;-81
2021/08/08 06:20:50;;;;;;;1.02;1.02;;;;;;;34.02;31.90;94859.97;4974282;28;20487;-81
2021/08/08 06:23:16;;;;;;;1.30;1.20;;;;;;;37.24;27.01;94850.94;4989314;28;20033;-80
2021/08/08 06:25:41;;;;;;;1.38;1.10;;;;;;;36.37;28.09;94859.38;4965646;28;20466;-80
2021/08/08 06:28:06;;;;;;;1.02;1.00;;;;;;;37.96;25.94;94858.81;4937522;28;20026;-80
2021/08/08 06:30:32;;;;;;;2.15;1.52;;;;;;;37.65;26.33;94850.59;4969456;28;20023;-80
2021/08/08 06:32:58;;;;;;;1.10;1.00;;;;;;;33.97;30.01;94828.66;4954436;28;20535;-80
2021/08/08 06:35:23;;;;;;;1.30;1.20;;;;;;;33.00;31.66;94853.50;4955077;28;20023;-81
2021/08/08 06:37:48;;;;;;;1.48;1.10;;;;;;;31.59;35.15;94856.16;4990889;28;20026;-81
2021/08/08 06:40:14;;;;;;;1.60;1.10;;;;;;;30.75;36.15;94852.38;4988575;28;20403;-81
2021/08/08 06:42:39;;;;;;;1.10;1.10;;;;;;;28.55;38.72;94859.09;4973969;28;20040;-80
2021/08/08 06:45:05;;;;;;;1.63;0.90;;;;;;;30.42;36.61;94864.28;4971652;28;20033;-81
2021/08/08 06:47:30;;;;;;;0.70;0.70;;;;;;;31.36;35.82;94851.84;4966631;28;20031;-80
2021/08/08 06:49:56;;;;;;;1.88;1.25;;;;;;;30.90;36.79;94854.72;4949676;28;20473;-79
2021/08/08 06:52:21;;;;;;;2.05;1.00;;;;;;;30.68;36.15;94862.69;4952823;28;20023;-80
2021/08/08 06:54:47;;;;;;;1.92;1.05;;;;;;;32.28;33.83;94861.94;4964494;28;20058;-80
2021/08/08 06:59:48;;;;;;;2.33;1.40;;;;;;;38.03;25.70;94854.72;5277164;23;20054;-81
2021/08/08 07:02:13;;;;;;;3.30;1.25;;;;;;;37.38;26.45;94840.50;5006368;28;20077;-81
2021/08/08 07:04:38;;;;;;;1.33;1.23;;;;;;;31.60;35.17;94855.03;4994681;28;20097;-81
2021/08/08 07:07:04;;;;;;;1.13;1.02;;;;;;;30.89;36.64;94849.69;4973587;28;20037;-82
2021/08/08 07:09:29;;;;;;;1.30;1.20;;;;;;;30.18;37.06;94856.44;4973737;28;20472;-82
2021/08/08 07:11:55;;;;;;;1.85;1.17;;;;;;;29.90;37.91;94852.09;4973739;28;20026;-81
2021/08/08 07:14:20;;;;;;;1.27;1.17;;;;;;;28.00;40.27;94842.59;4956834;28;20035;-80
2021/08/08 07:16:46;;;;;;;1.48;1.38;;;;;;;29.01;39.02;94843.31;4973557;28;20092;-81
2021/08/08 07:19:11;;;;;;;1.40;1.30;;;;;;;28.17;39.60;94848.31;4972962;28;20518;-80
2021/08/08 07:21:37;;;;;;;1.55;1.00;;;;;;;30.03;37.96;94856.69;4973577;28;20034;-81
2021/08/08 07:24:03;;;;;;;2.28;1.20;;;;;;;28.55;40.98;94846.56;4989754;28;20109;-81
2021/08/08 07:26:28;;;;;;;2.58;0.75;;;;;;;27.42;41.59;94847.09;4956972;28;20027;-81
2021/08/08 07:28:54;;;;;;;1.35;1.00;;;;;;;29.41;39.53;94844.63;4953345;28;20019;-81
2021/08/08 07:31:19;;;;;;;3.58;1.20;;;;;;;28.38;40.31;94843.56;4970364;28;20030;-81
2021/08/08 07:33:45;;;;;;;2.25;1.00;;;;;;;30.37;37.40;94837.63;4969527;28;20555;-83
2021/08/08 07:36:10;;;;;;;2.78;1.45;;;;;;;30.07;38.06;94847.00;4953350;28;20031;-82
2021/08/08 07:38:36;;;;;;;1.48;1.10;;;;;;;30.29;38.03;94839.88;4973442;28;20034;-83
2021/08/08 07:41:02;;;;;;;5.93;1.30;;;;;;;30.56;37.73;94836.44;4971064;28;20039;-82
2021/08/08 07:43:27;;;;;;;1.70;0.90;;;;;;;30.32;37.90;94835.81;4941147;28;20034;-82
2021/08/08 07:45:52;;;;;;;1.95;1.20;;;;;;;29.40;38.18;94827.81;4956549;28;20034;-83
2021/08/08 07:48:18;;;;;;;3.03;1.20;;;;;;;30.28;37.19;94805.41;4973178;28;20027;-84
2021/08/08 07:50:43;;;;;;;4.35;1.20;;;;;;;30.20;37.89;94828.31;4956807;28;20023;-83
2021/08/08 07:53:09;;;;;;;1.42;1.17;;;;;;;30.37;36.47;94826.91;4953162;28;20480;-83
2021/08/08 07:55:35;;;;;;;3.10;1.02;;;;;;;30.34;36.72;94814.94;4973650;28;20050;-83
2021/08/08 07:58:02;;;;;;;2.25;1.05;;;;;;;31.25;37.00;94826.41;4988288;28;20030;-83
2021/08/08 08:00:28;;;;;;;1.17;1.08;;;;;;;30.54;36.13;94822.56;4954492;28;20050;-85
2021/08/08 08:02:53;;;;;;;1.42;1.30;;;;;;;29.95;38.14;94833.31;4953455;28;20034;-84
2021/08/08 08:05:19;;;;;;;0.90;0.90;;;;;;;30.30;37.53;94813.94;4937632;28;20227;-86
2021/08/08 08:07:44;;;;;;;1.50;1.05;;;;;;;31.01;37.11;94840.06;4969653;28;20042;-86
2021/08/08 08:10:10;;;;;;;1.02;1.00;;;;;;;31.13;34.35;94843.00;4969529;28;20417;-86
2021/08/08 08:12:37;;;;;;;1.60;1.00;;;;;;;30.10;35.93;94828.50;4937538;28;20109;-86
2021/08/08 08:15:03;;;;;;;1.38;1.20;;;;;;;30.65;36.13;94833.84;4965495;28;20118;-86
2021/08/08 08:17:28;;;;;;;1.33;1.23;;;;;;;30.96;34.48;94821.44;4952879;28;20117;-85
2021/08/08 08:19:54;;;;;;;1.40;1.20;;;;;;;30.48;36.62;94821.09;4968559;28;20030;-85
2021/08/08 08:22:19;;;;;;;1.08;1.00;;;;;;;30.93;36.01;94838.06;4969508;28;20468;-87
2021/08/08 08:24:45;;;;;;;1.00;1.00;;;;;;;32.12;36.07;94845.44;4952443;28;20026;-87
2021/08/08 08:27:11;;;;;;;2.10;1.30;;;;;;;31.43;35.48;94827.34;4952608;28;20140;-86
2021/08/08 08:29:36;;;;;;;2.10;1.20;;;;;;;31.05;34.35;94834.91;4952858;28;20031;-87
2021/08/08 08:32:02;;;;;;;1.20;1.08;;;;;;;30.82;35.51;94826.78;4952470;28;20030;-85
2021/08/08 08:34:27;;;;;;;1.48;1.15;;;;;;;31.33;35.71;94826.47;4953445;28;20035;-86
2021/08/08 08:36:53;;;;;;;2.75;1.25;;;;;;;31.60;34.58;94835.50;4925583;29;20035;-85
2021/08/08 08:39:18;;;;;;;1.73;1.30;;;;;;;30.20;36.39;94830.97;4951406;28;20043;-83
2021/08/08 08:41:44;;;;;;;2.75;1.20;;;;;;;29.33;37.23;94824.72;4968209;28;20041;-85
2021/08/08 08:44:09;;;;;;;1.50;1.40;;;;;;;29.76;36.25;94823.44;4953414;28;20037;-85
2021/08/08 08:46:35;;;;;;;1.35;1.25;;;;;;;30.82;36.35;94813.41;4952200;28;20027;-84
2021/08/08 08:49:01;;;;;;;1.10;1.00;;;;;;;30.59;36.88;94803.75;4937382;28;20078;-86
2021/08/08 08:51:28;;;;;;;2.10;1.40;;;;;;;31.78;35.98;94821.91;4968662;28;20035;-86
2021/08/08 08:53:54;;;;;;;2.80;1.20;;;;;;;30.86;35.57;94808.25;4968919;28;20110;-84
2021/08/08 08:56:21;;;;;;;3.30;1.02;;;;;;;30.92;35.41;94815.06;4963945;28;20027;-85
2021/08/08 08:58:46;;;;;;;1.30;1.20;;;;;;;30.77;36.14;94818.88;4938190;29;20047;-85
2021/08/08 09:01:12;;;;;;;1.85;1.25;;;;;;;31.13;34.56;94812.75;4973138;28;20026;-84
2021/08/08 09:03:37;;;;;;;1.75;1.35;;;;;;;31.64;37.04;94815.84;4967569;28;20416;-86
2021/08/08 09:06:03;;;;;;;2.00;1.00;;;;;;;31.82;34.85;94809.47;4935357;28;20512;-84
2021/08/08 09:08:29;;;;;;;2.20;1.42;;;;;;;30.79;35.33;94827.38;4966459;28;20068;-85
2021/08/08 09:11:02;;;;;;;2.45;1.08;;;;;;;30.58;35.55;94820.09;4952073;28;20053;-84
2021/08/08 09:13:27;;;;;;;2.20;1.20;;;;;;;31.07;34.85;94816.66;4968305;28;20027;-84
2021/08/08 09:15:53;;;;;;;1.15;1.05;;;;;;;31.18;33.71;94813.44;4935462;28;20038;-83
2021/08/08 09:18:21;;;;;;;1.60;1.15;;;;;;;30.42;34.28;94816.94;4952517;28;20085;-83
2021/08/08 09:20:46;;;;;;;2.10;1.00;;;;;;;30.25;34.75;94811.34;4951973;28;20102;-84
2021/08/08 09:23:12;;;;;;;1.20;1.10;;;;;;;31.05;33.31;94813.50;4968946;28;20041;-84
2021/08/08 09:25:55;;;;;;;2.15;1.10;;;;;;;31.24;34.00;94806.09;4950269;28;20030;-84
2021/08/08 09:28:30;;;;;;;1.25;1.05;;;;;;;30.69;34.33;94808.91;4951917;28;20034;-84
2021/08/08 09:30:56;;;;;;;1.20;1.10;;;;;;;31.68;32.80;94816.81;4936499;29;20039;-84
2021/08/08 09:33:22;;;;;;;2.15;1.00;;;;;;;32.21;32.98;94791.84;4947582;28;20232;-83
2021/08/08 09:35:50;;;;;;;1.45;1.20;;;;;;;31.56;31.70;94813.13;4964641;28;20068;-84
2021/08/08 09:38:16;;;;;;;1.15;1.05;;;;;;;31.62;31.76;94812.69;4967215;28;20019;-83
2021/08/08 09:40:42;;;;;;;2.22;1.13;;;;;;;32.10;30.20;94807.44;4971895;28;20081;-83
2021/08/08 09:43:08;;;;;;;2.67;1.75;;;;;;;30.91;30.77;94797.44;4971463;28;20046;-82
2021/08/08 09:45:41;;;;;;;2.75;1.35;;;;;;;30.60;30.66;94808.00;4967642;28;20374;-83
2021/08/08 09:48:11;;;;;;;1.33;1.13;;;;;;;30.76;28.62;94801.22;4965712;28;20512;-83
2021/08/08 09:50:36;;;;;;;1.20;1.10;;;;;;;31.69;30.70;94807.66;4970907;28;20023;-84
2021/08/08 09:53:03;;;;;;;1.88;0.90;;;;;;;30.65;31.10;94805.22;4956241;28;20038;-83
2021/08/08 09:55:37;;;;;;;1.27;1.10;;;;;;;31.13;30.71;94804.72;4972241;28;20416;-83
2021/08/08 09:58:26;;;;;;;1.17;1.10;;;;;;;32.15;29.78;94801.13;4972699;28;20121;-86
2021/08/08 10:00:58;;;;;;;0.90;0.90;;;;;;;31.56;29.25;94811.22;4965131;28;20122;-84
2021/08/08 10:03:23;;;;;;;2.45;1.10;;;;;;;31.75;30.89;94811.81;4955159;28;20043;-81
2021/08/08 10:05:49;;;;;;;1.13;1.00;;;;;;;32.07;29.50;94810.75;4946884;28;20381;-83
2021/08/08 10:08:19;;;;;;;0.85;0.85;;;;;;;31.64;28.34;94810.47;4953053;28;20030;-83
2021/08/08 10:10:46;;;;;;;1.10;1.00;;;;;;;31.78;28.40;94803.16;4952210;28;20442;-84
2021/08/08 10:13:30;;;;;;;2.10;1.10;;;;;;;32.65;29.28;94799.75;4969009;28;20045;-85
2021/08/08 10:15:56;;;;;;;1.33;0.88;;;;;;;32.11;28.11;94789.47;4968837;28;20503;-86
2021/08/08 10:18:24;;;;;;;1.08;0.95;;;;;;;31.27;28.81;94800.13;4968334;28;20551;-84
2021/08/08 10:20:49;;;;;;;0.80;0.80;;;;;;;32.79;29.16;94808.44;4936386;28;20505;-82
2021/08/08 10:23:16;;;;;;;1.13;1.13;;;;;;;32.96;27.32;94804.19;4952365;28;20049;-83
2021/08/08 10:25:46;;;;;;;0.93;0.90;;;;;;;32.91;27.01;94799.00;4968079;28;20086;-83
2021/08/08 10:28:12;;;;;;;1.00;1.00;;;;;;;32.68;27.47;94804.50;4951717;28;20069;-83
2021/08/08 10:30:38;;;;;;;1.17;0.80;;;;;;;32.95;26.45;94795.34;4965938;28;20026;-83
2021/08/08 10:33:06;;;;;;;0.77;0.70;;;;;;;32.41;26.07;94796.66;4944441;29;20461;-88
2021/08/08 10:35:37;;;;;;;1.73;0.80;;;;;;;32.74;27.64;94800.56;4960638;28;20500;-84
2021/08/08 10:38:02;;;;;;;0.73;0.70;;;;;;;32.79;27.05;94795.03;4968677;28;20042;-85
2021/08/08 10:40:31;;;;;;;1.00;0.90;;;;;;;32.57;26.25;94792.47;4938854;28;20026;-83
2021/08/08 10:42:57;;;;;;;1.25;0.90;;;;;;;33.05;26.44;94778.13;4971383;28;20031;-83
2021/08/08 10:45:27;;;;;;;3.55;1.23;;;;;;;33.19;25.74;94786.84;4951984;28;20027;-85
2021/08/08 10:48:00;;;;;;;0.70;0.70;;;;;;;33.12;25.74;94775.78;4969970;28;20110;-83
2021/08/08 10:50:43;;;;;;;1.90;0.82;;;;;;;33.20;24.97;94785.75;4952767;28;20035;-81
2021/08/08 10:53:38;;;;;;;1.00;0.90;;;;;;;33.48;24.76;94778.94;4949707;29;20461;-84
2021/08/08 10:56:04;;;;;;;0.95;0.70;;;;;;;33.04;26.23;94780.03;4944027;29;20039;-83
2021/08/08 10:58:34;;;;;;;2.00;0.93;;;;;;;33.05;25.27;94775.44;4949918;29;20100;-81
2021/08/08 11:00:59;;;;;;;1.30;0.82;;;;;;;32.76;26.40;94770.69;4948992;29;20114;-84
2021/08/08 11:03:29;;;;;;;0.73;0.68;;;;;;;33.30;25.54;94778.16;4967483;28;20031;-84
2021/08/08 11:05:55;;;;;;;0.70;0.68;;;;;;;32.78;23.31;94769.28;4953203;28;20464;-83
2021/08/08 11:08:22;;;;;;;1.77;0.90;;;;;;;32.47;23.00;94784.66;4952027;28;20019;-84
2021/08/08 11:10:48;;;;;;;1.00;0.80;;;;;;;32.55;24.91;94775.88;4968342;28;20101;-81
2021/08/08 11:13:23;;;;;;;1.88;0.82;;;;;;;33.09;23.83;94771.06;4951861;28;20472;-82
2021/08/08 11:15:50;;;;;;;1.00;0.90;;;;;;;32.92;24.76;94779.88;4968016;28;20439;-86
2021/08/08 11:18:16;;;;;;;1.27;0.77;;;;;;;33.01;25.46;94774.53;4952327;28;20023;-84
2021/08/08 11:20:42;;;;;;;1.02;0.80;;;;;;;32.58;24.05;94779.84;4967562;28;20038;-83
2021/08/08 11:23:08;;;;;;;1.02;1.00;;;;;;;32.68;24.58;94784.91;4953021;28;20545;-84
2021/08/08 11:25:41;;;;;;;1.02;0.85;;;;;;;33.49;24.88;94772.44;4951987;28;20066;-84
2021/08/08 11:28:07;;;;;;;2.60;0.88;;;;;;;33.56;24.49;94772.72;4936554;28;20026;-81
2021/08/08 11:30:40;;;;;;;1.85;0.70;;;;;;;33.98;24.84;94765.69;4951707;28;20102;-87
2021/08/08 11:33:05;;;;;;;0.93;0.90;;;;;;;33.18;24.95;94764.56;4936369;28;20086;-83
2021/08/08 11:35:31;;;;;;;1.10;1.00;;;;;;;33.79;26.31;94762.59;4951972;28;20060;-83
2021/08/08 11:37:57;;;;;;;4.15;0.80;;;;;;;33.42;25.35;94747.97;4951015;28;20042;-83
2021/08/08 11:40:27;;;;;;;1.13;1.02;;;;;;;33.78;25.53;94740.28;4951682;28;20034;-85
2021/08/08 11:43:00;;;;;;;0.63;0.63;;;;;;;33.73;23.74;94748.53;4960586;28;20436;-81
2021/08/08 11:45:35;;;;;;;0.85;0.85;;;;;;;33.87;23.47;94751.81;4967461;28;20026;-84
2021/08/08 11:48:00;;;;;;;0.80;0.80;;;;;;;33.37;22.98;94748.13;4961571;28;20096;-83
2021/08/08 11:50:28;;;;;;;2.13;1.30;;;;;;;33.01;23.16;94737.69;4949202;28;20042;-83
2021/08/08 11:52:57;;;;;;;0.77;0.77;;;;;;;33.57;23.37;94731.31;4957444;28;20483;-85
2021/08/08 11:55:23;;;;;;;1.15;0.80;;;;;;;33.25;24.41;94729.19;4941956;28;20031;-84
2021/08/08 11:57:49;;;;;;;1.02;1.02;;;;;;;32.68;23.80;94720.50;4948130;28;20027;-85
2021/08/08 12:00:15;;;;;;;1.55;0.80;;;;;;;33.50;24.45;94724.84;4964600;28;20478;-85
2021/08/08 12:02:40;;;;;;;0.75;0.75;;;;;;;34.14;25.00;94712.16;4932109;28;20106;-84
2021/08/08 12:05:06;;;;;;;4.53;0.98;;;;;;;33.89;23.39;94720.00;4948972;28;20038;-82
2021/08/08 12:07:31;;;;;;;0.88;0.88;;;;;;;34.06;23.80;94708.38;4955715;28;20031;-83
2021/08/08 12:09:59;;;;;;;6.35;0.98;;;;;;;34.18;22.97;94707.72;4956001;28;20035;-81
2021/08/08 12:12:37;;;;;;;4.53;0.80;;;;;;;33.87;22.06;94692.66;4966950;28;20049;-82
2021/08/08 12:15:03;;;;;;;1.02;0.75;;;;;;;34.12;23.39;94712.50;4931785;29;20077;-83
2021/08/08 12:17:29;;;;;;;4.72;1.10;;;;;;;33.97;22.79;94713.03;4944003;28;20041;-82
2021/08/08 12:19:55;;;;;;;0.90;0.80;;;;;;;34.51;23.16;94723.97;4966653;28;20027;-84
2021/08/08 12:22:23;;;;;;;1.00;0.80;;;;;;;34.33;23.56;94716.00;4966653;28;20031;-83
2021/08/08 12:25:08;;;;;;;1.05;0.80;;;;;;;34.12;23.88;94711.69;4966503;28;20101;-84
2021/08/08 12:27:35;;;;;;;1.55;0.90;;;;;;;34.10;22.02;94711.22;4961981;28;20058;-85
2021/08/08 12:30:01;;;;;;;0.88;0.80;;;;;;;34.06;22.05;94708.38;4945156;28;20031;-84
2021/08/08 12:32:34;;;;;;;1.08;0.90;;;;;;;33.78;21.74;94699.16;4967036;28;20090;-83
2021/08/08 12:35:21;;;;;;;2.20;0.80;;;;;;;34.02;22.82;94712.03;4965987;28;20019;-84
2021/08/08 12:37:47;;;;;;;1.00;0.90;;;;;;;34.29;22.67;94717.75;4964942;28;20114;-83
2021/08/08 12:40:17;;;;;;;0.90;0.80;;;;;;;34.38;23.18;94713.13;4930954;29;20045;-85
2021/08/08 12:42:43;;;;;;;2.13;0.80;;;;;;;33.86;23.31;94712.59;4931315;29;20408;-84
2021/08/08 12:45:16;;;;;;;0.80;0.75;;;;;;;33.44;23.22;94710.81;4947369;29;20031;-83
2021/08/08 12:47:46;;;;;;;0.90;0.90;;;;;;;33.88;23.72;94701.50;4952474;28;20034;-82
2021/08/08 12:50:13;;;;;;;1.30;1.20;;;;;;;33.37;23.18;94707.81;4950547;28;20022;-84
2021/08/08 12:52:38;;;;;;;1.27;1.10;;;;;;;33.74;24.06;94703.63;4966600;28;20031;-83
2021/08/08 12:55:04;;;;;;;1.73;1.20;;;;;;;33.68;23.40;94708.38;4950035;28;20030;-83
2021/08/08 12:57:29;;;;;;;1.08;0.90;;;;;;;34.17;22.83;94698.06;4950573;28;20500;-82
2021/08/08 12:59:55;;;;;;;1.52;1.13;;;;;;;33.95;22.97;94698.31;4956926;28;20047;-83
2021/08/08 13:02:20;;;;;;;1.30;1.20;;;;;;;33.57;23.02;94693.69;4949998;29;20031;-83
2021/08/08 13:04:46;;;;;;;1.50;1.25;;;;;;;33.65;22.80;94698.25;4943466;28;20037;-84
2021/08/08 13:07:11;;;;;;;1.17;1.08;;;;;;;33.70;23.48;94689.25;4967487;28;20031;-82
2021/08/08 13:09:37;;;;;;;1.30;1.20;;;;;;;33.32;23.58;94691.88;4934009;28;20410;-84
2021/08/08 13:12:02;;;;;;;1.17;1.08;;;;;;;33.55;24.11;94701.28;4950148;28;20031;-84
2021/08/08 13:14:28;;;;;;;1.58;1.02;;;;;;;33.45;23.86;94673.97;4952383;28;20102;-85
2021/08/08 13:16:53;;;;;;;0.80;0.80;;;;;;;33.88;24.23;94694.22;4969948;28;20396;-85
2021/08/08 13:19:19;;;;;;;1.80;1.05;;;;;;;33.64;23.96;94691.34;4954125;28;20038;-85
2021/08/08 13:21:44;;;;;;;1.80;1.38;;;;;;;33.18;23.18;94686.69;4953605;28;20761;-87
2021/08/08 13:24:10;;;;;;;1.45;1.30;;;;;;;33.50;22.66;94685.34;4954185;28;20030;-86
2021/08/08 13:26:35;;;;;;;1.55;1.20;;;;;;;33.71;24.44;94691.63;4937745;28;20027;-84
2021/08/08 13:29:01;;;;;;;1.40;1.30;;;;;;;33.36;22.48;94682.84;4954258;28;20456;-85
2021/08/08 13:31:26;;;;;;;1.38;1.17;;;;;;;33.92;22.68;94689.78;4953228;28;20039;-83
2021/08/08 13:33:52;;;;;;;1.17;1.10;;;;;;;33.46;22.59;94670.19;4953722;28;20038;-86
2021/08/08 13:36:17;;;;;;;1.38;1.23;;;;;;;34.22;23.10;94685.22;4953208;28;20022;-84
2021/08/08 13:38:43;;;;;;;3.28;1.33;;;;;;;34.40;23.25;94678.59;4951620;28;20031;-85
2021/08/08 13:41:08;;;;;;;1.40;1.30;;;;;;;34.16;22.86;94691.91;4936857;28;20030;-85
2021/08/08 13:43:34;;;;;;;0.85;0.82;;;;;;;33.91;22.88;94690.09;4952797;28;20049;-85
2021/08/08 13:45:59;;;;;;;1.20;1.10;;;;;;;33.70;23.12;94684.66;4937700;28;20483;-84
2021/08/08 13:48:25;;;;;;;1.15;1.05;;;;;;;34.35;23.39;94678.81;4970322;28;20396;-83
2021/08/08 13:50:50;;;;;;;1.60;1.50;;;;;;;34.42;23.08;94691.75;4952007;28;20134;-83
2021/08/08 13:53:16;;;;;;;3.60;1.40;;;;;;;34.20;23.69;94683.94;4952662;28;20485;-85
2021/08/08 13:55:42;;;;;;;1.75;1.50;;;;;;;34.19;22.72;94685.09;4969112;28;20078;-81
2021/08/08 13:58:07;;;;;;;1.40;1.30;;;;;;;34.29;23.14;94680.09;4970664;28;20027;-83
2021/08/08 14:00:33;;;;;;;4.85;1.20;;;;;;;34.40;24.00;94686.69;4969858;28;20847;-84
2021/08/08 14:02:58;;;;;;;1.30;1.20;;;;;;;34.10;23.01;94676.25;4969434;28;20034;-83
2021/08/08 14:05:24;;;;;;;1.23;1.17;;;;;;;34.24;23.22;94676.81;4968726;28;20027;-83
2021/08/08 14:07:49;;;;;;;1.67;0.93;;;;;;;34.42;23.95;94680.97;4970286;28;20035;-77
2021/08/08 14:10:15;;;;;;;1.42;1.20;;;;;;;34.52;24.74;94688.63;4970254;28;20023;-78
2021/08/08 14:12:41;;;;;;;1.38;1.20;;;;;;;34.35;23.94;94694.16;4970296;28;20407;-78
2021/08/08 14:15:08;;;;;;;2.75;1.60;;;;;;;34.16;23.11;94678.47;4969299;28;20022;-79
2021/08/08 14:17:33;;;;;;;2.90;1.30;;;;;;;34.37;24.14;94694.63;4952453;28;20114;-79
2021/08/08 14:19:59;;;;;;;3.10;1.30;;;;;;;34.37;23.63;94695.41;4946648;29;20050;-78
2021/08/08 14:22:25;;;;;;;2.95;1.55;;;;;;;34.32;24.88;94689.44;4950381;28;20398;-79
2021/08/08 14:24:50;;;;;;;1.40;1.30;;;;;;;34.16;24.37;94683.03;4967281;28;20042;-79
2021/08/08 14:27:16;;;;;;;1.13;1.02;;;;;;;33.57;23.87;94676.78;4948805;28;20230;-78
2021/08/08 14:29:41;;;;;;;1.90;1.23;;;;;;;33.78;23.85;94683.81;4951785;28;20027;-78
2021/08/08 14:32:07;;;;;;;1.48;1.38;;;;;;;34.03;24.23;94684.81;4954304;28;20023;-79
2021/08/08 14:34:32;;;;;;;2.88;1.38;;;;;;;34.14;25.42;94686.03;4966219;28;20094;-81
2021/08/08 14:36:58;;;;;;;2.40;1.38;;;;;;;33.71;24.48;94688.16;4952269;28;20035;-78
2021/08/08 14:39:26;;;;;;;1.40;1.25;;;;;;;33.73;25.91;94689.41;4936739;28;20167;-80
2021/08/08 14:41:51;;;;;;;1.73;1.40;;;;;;;33.85;25.33;94684.13;4949804;28;20027;-79
2021/08/08 14:44:17;;;;;;;1.88;1.70;;;;;;;33.42;24.14;94677.31;4950009;28;20097;-80
2021/08/08 14:46:42;;;;;;;1.60;1.50;;;;;;;33.50;24.93;94688.03;4968036;28;20464;-77
2021/08/08 14:49:08;;;;;;;2.05;1.48;;;;;;;34.02;24.42;94679.75;4951728;28;20053;-79
2021/08/08 14:51:33;;;;;;;2.88;1.60;;;;;;;33.92;25.02;94680.91;4969676;28;20080;-78
2021/08/08 14:53:59;;;;;;;1.88;1.50;;;;;;;33.63;24.35;94679.00;4969786;28;20035;-78
2021/08/08 14:56:25;;;;;;;2.78;1.45;;;;;;;33.69;23.94;94675.00;4951610;28;20034;-78
2021/08/08 14:58:50;;;;;;;3.47;1.52;;;;;;;33.94;24.14;94676.00;4950538;28;20022;-76
2021/08/08 15:01:16;;;;;;;1.75;1.65;;;;;;;33.58;24.55;94681.84;4932867;29;20034;-79
2021/08/08 15:03:41;;;;;;;2.08;1.60;;;;;;;33.80;23.93;94675.44;4933064;29;20505;-77
2021/08/08 15:06:07;;;;;;;3.05;1.90;;;;;;;33.71;23.62;94672.81;4948487;29;20042;-78
2021/08/08 15:08:33;;;;;;;1.70;1.60;;;;;;;33.55;23.29;94670.94;4938835;28;20086;-78
2021/08/08 15:11:00;;;;;;;3.47;1.75;;;;;;;33.64;23.43;94669.81;4952217;28;20062;-78
2021/08/08 15:13:26;;;;;;;2.60;1.80;;;;;;;33.48;23.13;94651.84;4951695;28;20065;-78
2021/08/08 15:15:52;;;;;;;1.70;1.60;;;;;;;33.50;25.89;94677.28;4952095;28;20550;-78
2021/08/08 15:18:17;;;;;;;1.95;1.85;;;;;;;33.62;24.83;94672.03;4953746;28;20031;-78
2021/08/08 15:20:42;;;;;;;1.90;1.80;;;;;;;33.55;24.60;94668.25;4963019;28;20085;-78
2021/08/08 15:23:08;;;;;;;2.10;1.70;;;;;;;33.47;24.90;94663.69;4951428;28;20039;-78
2021/08/08 15:25:33;;;;;;;2.60;2.08;;;;;;;33.22;24.27;94643.84;4935449;28;20043;-77
2021/08/08 15:27:59;;;;;;;2.75;1.70;;;;;;;33.19;24.89;94663.31;4968949;28;20030;-76
2021/08/08 15:30:25;;;;;;;2.30;1.73;;;;;;;33.05;23.75;94643.88;4967683;28;20116;-76
2021/08/08 15:32:50;;;;;;;2.10;1.90;;;;;;;33.15;23.92;94670.41;4935438;28;20470;-76
2021/08/08 15:35:16;;;;;;;2.30;2.10;;;;;;;33.15;24.19;94659.66;4948975;28;20508;-76
2021/08/08 15:37:42;;;;;;;2.20;2.10;;;;;;;33.39;24.76;94660.69;4954334;28;20027;-76
2021/08/08 15:40:08;;;;;;;3.70;2.05;;;;;;;33.34;24.62;94663.56;4947057;28;20031;-75
2021/08/08 15:42:33;;;;;;;6.40;2.08;;;;;;;33.36;23.61;94666.72;4934183;28;20150;-76
2021/08/08 15:44:59;;;;;;;2.15;1.95;;;;;;;33.36;24.11;94660.56;4923949;28;20543;-76
2021/08/08 15:47:24;;;;;;;2.53;1.88;;;;;;;33.02;25.14;94633.75;4966532;28;20046;-76
2021/08/08 15:49:50;;;;;;;2.00;1.90;;;;;;;33.00;25.23;94652.09;4943690;28;20955;-76
2021/08/08 15:52:15;;;;;;;3.78;1.95;;;;;;;33.07;25.04;94655.88;4949379;28;20046;-76
2021/08/08 15:54:40;;;;;;;2.20;1.90;;;;;;;32.99;24.54;94658.56;4967010;28;20027;-76
2021/08/08 15:57:06;;;;;;;1.88;1.67;;;;;;;33.02;25.98;94647.19;4950442;28;20026;-76
2021/08/08 15:59:33;;;;;;;2.38;2.00;;;;;;;33.03;25.93;94652.25;4966671;28;20050;-76
2021/08/08 16:01:58;;;;;;;2.92;1.98;;;;;;;32.87;24.80;94656.53;4965491;28;21101;-75
2021/08/08 16:04:26;;;;;;;3.95;1.83;;;;;;;32.74;24.33;94638.72;4938693;29;20027;-76
2021/08/08 16:06:52;;;;;;;2.20;2.00;;;;;;;32.67;25.33;94649.13;4944437;28;20033;-76
2021/08/08 16:09:17;;;;;;;2.08;1.92;;;;;;;32.36;26.30;94650.06;4950600;28;20432;-76
2021/08/08 16:11:43;;;;;;;2.08;1.85;;;;;;;32.57;25.27;94654.81;4950716;28;20027;-76
2021/08/08 16:14:08;;;;;;;2.25;1.92;;;;;;;32.47;24.91;94647.03;4966407;28;20047;-75
2021/08/08 16:16:33;;;;;;;2.70;1.85;;;;;;;32.42;26.37;94664.09;4950815;28;20030;-76
2021/08/08 16:18:59;;;;;;;1.75;1.63;;;;;;;32.27;24.42;94656.53;4965978;28;20034;-76
2021/08/08 16:21:24;;;;;;;2.42;2.20;;;;;;;32.12;27.07;94657.75;4966806;28;20090;-76
2021/08/08 16:23:50;;;;;;;3.80;2.00;;;;;;;31.91;26.90;94664.78;4933859;28;20053;-76
2021/08/08 16:26:15;;;;;;;4.28;2.00;;;;;;;31.90;27.44;94659.72;4951070;28;20050;-76
2021/08/08 16:28:41;;;;;;;2.90;2.30;;;;;;;31.95;26.96;94656.91;4966410;28;20078;-76
2021/08/08 16:31:06;;;;;;;2.95;1.75;;;;;;;31.93;27.29;94659.09;4947196;29;20047;-76
2021/08/08 16:33:32;;;;;;;3.58;1.90;;;;;;;31.82;27.45;94662.06;4950206;28;20037;-76